Check out our new BloomSky Weather System.

Active alerts


No alerts


Thunder radar  blitzortung!


Rain radar more information rain snow radar


Visit our other weather sites:

Template documentation
and downloads

And another site



Weather Underground History page Text

Daily Summary for June 15, 2017 Units:  English    Metric   Both
« Previous Day
Next Day »
Daily Weekly Monthly Yearly Custom
  High: Low: Average:
Temperature: 95.9 °F 76.8 °F 85.5 °F
Dew Point: 80.2 °F 74.1 °F 76.2 °F
Humidity: 96 % 52 % 76 %
Wind Speed: 12.0 mph 0.0 mph 3.6 mph
Wind Gust: 14.0 mph - -
Wind:- - SSE
Pressure: 29.98 in 29.86 in -
Precipitation: 0.00 in    
Historical Graphs
 
 
Tabular Data for June 15, 2017
Time Temperature Dew Point Pressure Wind Wind Speed Wind Gust Humidity Rainfall Rate (Hourly)
00:03 80.6 °F 76.3 °F 29.97 in SE 2.0 mph 4.0 mph 87 % 0.00 in
00:08 80.6 °F 76.3 °F 29.97 in South 5.0 mph 5.0 mph 87 % 0.00 in
00:13 80.4 °F 76.1 °F 29.97 in SE 2.0 mph 5.0 mph 87 % 0.00 in
00:18 80.4 °F 76.1 °F 29.97 in SE 4.0 mph 5.0 mph 87 % 0.00 in
00:23 80.4 °F 76.1 °F 29.97 in SE 2.0 mph 6.0 mph 87 % 0.00 in
00:28 80.2 °F 76.1 °F 29.97 in South 2.0 mph 6.0 mph 87 % 0.00 in
00:33 80.2 °F 76.3 °F 29.97 in SSE 3.0 mph 6.0 mph 88 % 0.00 in
00:38 80.2 °F 76.3 °F 29.96 in SE 2.0 mph 5.0 mph 88 % 0.00 in
00:43 80.1 °F 76.1 °F 29.96 in South 3.0 mph 5.0 mph 88 % 0.00 in
00:48 80.1 °F 76.1 °F 29.96 in SE 2.0 mph 5.0 mph 88 % 0.00 in
00:53 79.9 °F 75.9 °F 29.96 in SE 3.0 mph 5.0 mph 88 % 0.00 in
00:58 79.7 °F 76.1 °F 29.95 in South 3.0 mph 5.0 mph 89 % 0.00 in
01:03 79.7 °F 76.1 °F 29.95 in SE 2.0 mph 5.0 mph 89 % 0.00 in
01:08 79.5 °F 75.9 °F 29.95 in SSE 1.0 mph 4.0 mph 89 % 0.00 in
01:13 79.5 °F 75.9 °F 29.95 in South 3.0 mph 5.0 mph 89 % 0.00 in
01:18 79.5 °F 75.9 °F 29.95 in ESE 3.0 mph 8.0 mph 89 % 0.00 in
01:23 79.5 °F 75.9 °F 29.95 in SSE 3.0 mph 8.0 mph 89 % 0.00 in
01:28 79.5 °F 75.9 °F 29.94 in SSE 4.0 mph 8.0 mph 89 % 0.00 in
01:33 79.5 °F 75.9 °F 29.94 in South 3.0 mph 7.0 mph 89 % 0.00 in
01:43 79.5 °F 76.3 °F 29.94 in SSE 4.0 mph 6.0 mph 90 % 0.00 in
01:48 79.5 °F 76.3 °F 29.94 in ESE 2.0 mph 6.0 mph 90 % 0.00 in
01:53 79.3 °F 76.1 °F 29.94 in ESE 2.0 mph 6.0 mph 90 % 0.00 in
01:58 79.2 °F 75.9 °F 29.94 in ESE 2.0 mph 6.0 mph 90 % 0.00 in
02:03 79.2 °F 75.9 °F 29.93 in SE 4.0 mph 7.0 mph 90 % 0.00 in
02:08 79.2 °F 75.9 °F 29.93 in SSE 2.0 mph 7.0 mph 90 % 0.00 in
02:13 79.2 °F 76.3 °F 29.93 in South 2.0 mph 7.0 mph 91 % 0.00 in
02:18 79.0 °F 76.1 °F 29.93 in SE 6.0 mph 6.0 mph 91 % 0.00 in
02:23 79.0 °F 76.1 °F 29.93 in SSE 2.0 mph 6.0 mph 91 % 0.00 in
02:28 79.0 °F 76.1 °F 29.93 in ESE 2.0 mph 6.0 mph 91 % 0.00 in
02:33 79.0 °F 76.1 °F 29.93 in SSE 1.0 mph 6.0 mph 91 % 0.00 in
02:38 78.8 °F 75.9 °F 29.93 in SE 1.0 mph 6.0 mph 91 % 0.00 in
02:43 78.6 °F 75.7 °F 29.93 in SE 2.0 mph 6.0 mph 91 % 0.00 in
02:48 78.6 °F 76.1 °F 29.92 in SSE 2.0 mph 5.0 mph 92 % 0.00 in
02:53 78.6 °F 76.1 °F 29.93 in SSE 2.0 mph 4.0 mph 92 % 0.00 in
02:58 78.6 °F 76.1 °F 29.93 in SSW 1.0 mph 4.0 mph 92 % 0.00 in
03:03 78.6 °F 76.1 °F 29.93 in SSE 2.0 mph 4.0 mph 92 % 0.00 in
03:08 78.6 °F 76.1 °F 29.93 in South 2.0 mph 4.0 mph 92 % 0.00 in
03:13 78.4 °F 75.9 °F 29.92 in South 2.0 mph 5.0 mph 92 % 0.00 in
03:18 78.4 °F 75.9 °F 29.93 in South 1.0 mph 5.0 mph 92 % 0.00 in
03:23 78.4 °F 75.9 °F 29.93 in SSE 3.0 mph 5.0 mph 92 % 0.00 in
03:29 78.4 °F 76.3 °F 29.93 in SE 3.0 mph 4.0 mph 93 % 0.00 in
03:34 78.4 °F 76.3 °F 29.92 in SE 1.0 mph 4.0 mph 93 % 0.00 in
03:39 78.3 °F 76.1 °F 29.93 in SE 2.0 mph 4.0 mph 93 % 0.00 in
03:44 78.3 °F 76.1 °F 29.93 in SSW 1.0 mph 4.0 mph 93 % 0.00 in
03:49 78.3 °F 76.1 °F 29.93 in South 2.0 mph 4.0 mph 93 % 0.00 in
03:54 78.3 °F 76.1 °F 29.93 in Calm   4.0 mph 93 % 0.00 in
03:59 78.3 °F 76.1 °F 29.94 in SE 2.0 mph 4.0 mph 93 % 0.00 in
04:04 78.3 °F 76.1 °F 29.93 in South 2.0 mph 4.0 mph 93 % 0.00 in
04:09 78.3 °F 76.1 °F 29.94 in SSE 1.0 mph 3.0 mph 93 % 0.00 in
04:14 78.1 °F 75.9 °F 29.94 in SSE 1.0 mph 3.0 mph 93 % 0.00 in
04:19 78.1 °F 75.9 °F 29.94 in South 1.0 mph 3.0 mph 93 % 0.00 in
04:24 78.1 °F 76.3 °F 29.93 in SSE 1.0 mph 3.0 mph 94 % 0.00 in
04:29 77.9 °F 76.1 °F 29.93 in SSE 2.0 mph 3.0 mph 94 % 0.00 in
04:34 77.7 °F 75.9 °F 29.93 in Calm   2.0 mph 94 % 0.00 in
04:39 77.7 °F 75.9 °F 29.94 in South 1.0 mph 3.0 mph 94 % 0.00 in
04:44 77.7 °F 75.9 °F 29.94 in Calm   3.0 mph 94 % 0.00 in
04:49 77.5 °F 75.7 °F 29.94 in Calm   3.0 mph 94 % 0.00 in
04:54 77.4 °F 75.6 °F 29.94 in Calm   2.0 mph 94 % 0.00 in
04:59 77.2 °F 75.4 °F 29.94 in Calm   2.0 mph 94 % 0.00 in
05:01 77.2 °F 75.4 °F 29.94 in Calm   1.0 mph 94 % 0.00 in
05:06 77.2 °F 75.6 °F 29.94 in SSW 2.0 mph 2.0 mph 95 % 0.00 in
05:11 77.2 °F 75.6 °F 29.94 in Calm   2.0 mph 95 % 0.00 in
05:16 77.2 °F 75.6 °F 29.94 in SSW 1.0 mph 2.0 mph 95 % 0.00 in
05:21 77.2 °F 75.6 °F 29.94 in Calm   2.0 mph 95 % 0.00 in
05:26 77.2 °F 75.6 °F 29.94 in SSW 1.0 mph 2.0 mph 95 % 0.00 in
05:31 77.0 °F 75.4 °F 29.94 in Calm   2.0 mph 95 % 0.00 in
05:36 77.0 °F 75.4 °F 29.94 in Calm   1.0 mph 95 % 0.00 in
05:41 76.8 °F 75.2 °F 29.94 in South 1.0 mph 2.0 mph 95 % 0.00 in
05:46 76.8 °F 75.2 °F 29.94 in Calm   2.0 mph 95 % 0.00 in
05:51 76.8 °F 75.2 °F 29.94 in Calm   2.0 mph 95 % 0.00 in
05:56 76.8 °F 75.2 °F 29.94 in Calm   2.0 mph 95 % 0.00 in
06:01 76.8 °F 75.2 °F 29.94 in SSW 1.0 mph 2.0 mph 95 % 0.00 in
06:06 76.8 °F 75.2 °F 29.94 in SSE 1.0 mph 2.0 mph 95 % 0.00 in
06:11 76.8 °F 75.2 °F 29.94 in Calm   2.0 mph 95 % 0.00 in
06:16 76.8 °F 75.2 °F 29.94 in Calm   2.0 mph 95 % 0.00 in
06:21 76.8 °F 75.2 °F 29.94 in Calm   2.0 mph 95 % 0.00 in
06:26 76.8 °F 75.2 °F 29.94 in Calm   2.0 mph 95 % 0.00 in
06:31 76.8 °F 75.6 °F 29.94 in Calm   2.0 mph 96 % 0.00 in
06:36 76.8 °F 75.6 °F 29.94 in South 2.0 mph 3.0 mph 96 % 0.00 in
06:41 76.8 °F 75.2 °F 29.94 in ESE 2.0 mph 3.0 mph 95 % 0.00 in
06:52 77.2 °F 75.9 °F 29.94 in SE 2.0 mph 4.0 mph 96 % 0.00 in
06:57 77.2 °F 75.6 °F 29.94 in SE 2.0 mph 4.0 mph 95 % 0.00 in
07:02 77.4 °F 75.7 °F 29.94 in SSW 2.0 mph 4.0 mph 95 % 0.00 in
07:07 77.4 °F 75.7 °F 29.94 in SSW 3.0 mph 3.0 mph 95 % 0.00 in
07:12 77.5 °F 75.9 °F 29.94 in SSW 2.0 mph 4.0 mph 95 % 0.00 in
07:17 77.5 °F 75.9 °F 29.94 in SSE 2.0 mph 4.0 mph 95 % 0.00 in
07:22 77.7 °F 76.1 °F 29.94 in SE 2.0 mph 4.0 mph 95 % 0.00 in
07:27 78.1 °F 76.5 °F 29.94 in SE 2.0 mph 4.0 mph 95 % 0.00 in
07:32 78.3 °F 76.6 °F 29.94 in SSE 1.0 mph 3.0 mph 95 % 0.00 in
07:37 78.6 °F 76.8 °F 29.95 in Calm   3.0 mph 94 % 0.00 in
07:42 78.8 °F 77.0 °F 29.95 in SSE 2.0 mph 3.0 mph 94 % 0.00 in
07:47 79.0 °F 76.8 °F 29.95 in ESE 1.0 mph 3.0 mph 93 % 0.00 in
07:48 79.0 °F 76.8 °F 29.95 in Calm   3.0 mph 93 % 0.00 in
07:53 79.2 °F 77.0 °F 29.96 in South 2.0 mph 4.0 mph 93 % 0.00 in
07:58 79.5 °F 77.4 °F 29.96 in SE 2.0 mph 4.0 mph 93 % 0.00 in
08:03 80.2 °F 78.1 °F 29.96 in SSW 1.0 mph 4.0 mph 93 % 0.00 in
08:08 81.0 °F 78.4 °F 29.96 in Calm   5.0 mph 92 % 0.00 in
08:13 81.3 °F 78.4 °F 29.96 in South 3.0 mph 5.0 mph 91 % 0.00 in
08:18 81.7 °F 78.1 °F 29.96 in South 3.0 mph 5.0 mph 89 % 0.00 in
08:23 82.2 °F 78.6 °F 29.96 in SSE 4.0 mph 5.0 mph 89 % 0.00 in
08:28 82.6 °F 78.6 °F 29.97 in SE 2.0 mph 5.0 mph 88 % 0.00 in
08:33 82.8 °F 78.4 °F 29.97 in SE 3.0 mph 8.0 mph 87 % 0.00 in
08:38 83.1 °F 78.8 °F 29.97 in Calm   8.0 mph 87 % 0.00 in
08:43 83.5 °F 78.8 °F 29.97 in SSE 4.0 mph 8.0 mph 86 % 0.00 in
08:48 83.3 °F 78.6 °F 29.97 in SSE 9.0 mph 9.0 mph 86 % 0.00 in
08:53 82.9 °F 78.6 °F 29.97 in South 3.0 mph 10.0 mph 87 % 0.00 in
08:58 83.1 °F 78.4 °F 29.97 in South 5.0 mph 10.0 mph 86 % 0.00 in
09:03 82.9 °F 77.9 °F 29.97 in SSW 1.0 mph 10.0 mph 85 % 0.00 in
09:08 82.9 °F 78.3 °F 29.98 in South 3.0 mph 11.0 mph 86 % 0.00 in
09:13 83.1 °F 78.4 °F 29.98 in SSE 4.0 mph 11.0 mph 86 % 0.00 in
09:18 83.3 °F 78.6 °F 29.98 in SSE 5.0 mph 11.0 mph 86 % 0.00 in
09:23 83.5 °F 78.4 °F 29.98 in South 4.0 mph 8.0 mph 85 % 0.00 in
09:28 83.7 °F 78.6 °F 29.98 in SSE 3.0 mph 8.0 mph 85 % 0.00 in
09:33 84.0 °F 78.6 °F 29.98 in SSE 5.0 mph 8.0 mph 84 % 0.00 in
09:38 84.6 °F 78.8 °F 29.98 in SSE 7.0 mph 10.0 mph 83 % 0.00 in
09:39 84.7 °F 79.0 °F 29.98 in SSW 5.0 mph 10.0 mph 83 % 0.00 in
09:44 85.3 °F 79.2 °F 29.98 in South 6.0 mph 10.0 mph 82 % 0.00 in
09:49 85.5 °F 79.3 °F 29.98 in South 4.0 mph 10.0 mph 82 % 0.00 in
09:54 86.2 °F 79.3 °F 29.98 in SSW 5.0 mph 9.0 mph 80 % 0.00 in
09:59 86.5 °F 78.8 °F 29.98 in South 3.0 mph 9.0 mph 78 % 0.00 in
10:04 86.4 °F 77.9 °F 29.98 in SSE 3.0 mph 9.0 mph 76 % 0.00 in
10:09 86.2 °F 77.7 °F 29.98 in South 7.0 mph 11.0 mph 76 % 0.00 in
10:14 86.0 °F 78.3 °F 29.98 in SSE 3.0 mph 14.0 mph 78 % 0.00 in
10:19 85.8 °F 78.1 °F 29.98 in South 2.0 mph 14.0 mph 78 % 0.00 in
10:24 86.5 °F 79.2 °F 29.98 in SSE 2.0 mph 14.0 mph 79 % 0.00 in
10:29 87.3 °F 79.2 °F 29.98 in SSW 2.0 mph 10.0 mph 77 % 0.00 in
10:34 87.4 °F 78.6 °F 29.98 in SE 3.0 mph 10.0 mph 75 % 0.00 in
10:39 88.3 °F 80.2 °F 29.98 in SSW 3.0 mph 9.0 mph 77 % 0.00 in
10:44 89.1 °F 78.8 °F 29.98 in SSW 4.0 mph 9.0 mph 72 % 0.00 in
10:49 89.2 °F 78.1 °F 29.98 in SSE 4.0 mph 9.0 mph 70 % 0.00 in
10:54 89.2 °F 78.1 °F 29.98 in SSW 4.0 mph 9.0 mph 70 % 0.00 in
10:59 89.2 °F 78.1 °F 29.98 in SSW 6.0 mph 11.0 mph 70 % 0.00 in
11:04 89.4 °F 77.9 °F 29.98 in SE 4.0 mph 11.0 mph 69 % 0.00 in
11:09 89.4 °F 78.3 °F 29.98 in SW 1.0 mph 11.0 mph 70 % 0.00 in
11:14 89.8 °F 78.3 °F 29.98 in SE 6.0 mph 10.0 mph 69 % 0.00 in
11:19 89.8 °F 77.7 °F 29.98 in ESE 5.0 mph 10.0 mph 68 % 0.00 in
11:24 90.0 °F 77.5 °F 29.98 in SSE 7.0 mph 10.0 mph 67 % 0.00 in
11:29 89.8 °F 77.4 °F 29.97 in SE 5.0 mph 12.0 mph 67 % 0.00 in
11:34 90.0 °F 77.5 °F 29.98 in South 9.0 mph 12.0 mph 67 % 0.00 in
11:39 90.1 °F 77.7 °F 29.97 in ESE 4.0 mph 12.0 mph 67 % 0.00 in
11:44 90.9 °F 78.4 °F 29.98 in SSE 4.0 mph 12.0 mph 67 % 0.00 in
11:49 91.2 °F 77.7 °F 29.98 in SSE 3.0 mph 12.0 mph 65 % 0.00 in
11:54 91.6 °F 78.6 °F 29.98 in SSW 9.0 mph 12.0 mph 66 % 0.00 in
11:59 91.6 °F 79.5 °F 29.98 in SSE 5.0 mph 11.0 mph 68 % 0.00 in
12:04 91.2 °F 77.4 °F 29.98 in SE 5.0 mph 11.0 mph 64 % 0.00 in
12:09 90.7 °F 76.8 °F 29.98 in SE 8.0 mph 10.0 mph 64 % 0.00 in
12:14 91.0 °F 78.1 °F 29.98 in SSE 5.0 mph 9.0 mph 66 % 0.00 in
12:20 91.8 °F 77.9 °F 29.97 in WSW 1.0 mph 9.0 mph 64 % 0.00 in
12:25 91.8 °F 77.4 °F 29.97 in SSW 2.0 mph 9.0 mph 63 % 0.00 in
12:30 91.9 °F 77.5 °F 29.97 in North 1.0 mph 9.0 mph 63 % 0.00 in
12:35 91.9 °F 77.5 °F 29.97 in Calm   9.0 mph 63 % 0.00 in
12:40 91.9 °F 76.1 °F 29.97 in SSE 1.0 mph 8.0 mph 60 % 0.00 in
12:45 92.1 °F 77.2 °F 29.96 in South 3.0 mph 10.0 mph 62 % 0.00 in
12:50 93.0 °F 77.5 °F 29.96 in SE 10.0 mph 10.0 mph 61 % 0.00 in
13:00 93.4 °F 76.8 °F 29.96 in SE 4.0 mph 11.0 mph 59 % 0.00 in
13:05 93.0 °F 76.6 °F 29.96 in SE 4.0 mph 11.0 mph 59 % 0.00 in
13:10 93.0 °F 76.6 °F 29.95 in SSE 6.0 mph 11.0 mph 59 % 0.00 in
13:12 93.2 °F 75.7 °F 29.96 in South 7.0 mph 11.0 mph 57 % 0.00 in
13:17 93.6 °F 76.1 °F 29.95 in ESE 6.0 mph 11.0 mph 57 % 0.00 in
13:22 93.6 °F 77.0 °F 29.95 in South 5.0 mph 11.0 mph 59 % 0.00 in
13:27 94.3 °F 76.6 °F 29.95 in SSW 1.0 mph 11.0 mph 57 % 0.00 in
13:32 94.5 °F 76.3 °F 29.95 in SSE 2.0 mph 11.0 mph 56 % 0.00 in
13:37 94.3 °F 76.1 °F 29.95 in South 7.0 mph 10.0 mph 56 % 0.00 in
13:42 93.6 °F 76.1 °F 29.95 in East 5.0 mph 10.0 mph 57 % 0.00 in
13:47 93.2 °F 75.7 °F 29.94 in ESE 2.0 mph 10.0 mph 57 % 0.00 in
13:52 93.7 °F 77.2 °F 29.94 in South 4.0 mph 10.0 mph 59 % 0.00 in
13:57 94.3 °F 76.6 °F 29.94 in South 5.0 mph 9.0 mph 57 % 0.00 in
14:02 94.5 °F 75.7 °F 29.94 in SSE 2.0 mph 11.0 mph 55 % 0.00 in
14:07 94.6 °F 75.9 °F 29.94 in ESE 6.0 mph 11.0 mph 55 % 0.00 in
14:12 94.8 °F 75.6 °F 29.94 in SE 6.0 mph 11.0 mph 54 % 0.00 in
14:17 94.6 °F 74.8 °F 29.94 in SSE 4.0 mph 9.0 mph 53 % 0.00 in
14:22 94.6 °F 74.8 °F 29.94 in SE 9.0 mph 9.0 mph 53 % 0.00 in
14:27 94.5 °F 74.1 °F 29.94 in SSW 2.0 mph 11.0 mph 52 % 0.00 in
14:32 94.6 °F 75.4 °F 29.93 in South 7.0 mph 11.0 mph 54 % 0.00 in
14:37 95.2 °F 75.9 °F 29.93 in SE 1.0 mph 11.0 mph 54 % 0.00 in
14:42 95.4 °F 75.0 °F 29.93 in SSE 5.0 mph 10.0 mph 52 % 0.00 in
14:47 94.8 °F 74.5 °F 29.93 in South 4.0 mph 10.0 mph 52 % 0.00 in
14:52 94.8 °F 75.0 °F 29.93 in SSE 3.0 mph 10.0 mph 53 % 0.00 in
14:57 94.6 °F 75.4 °F 29.93 in East 5.0 mph 9.0 mph 54 % 0.00 in
15:02 94.8 °F 75.6 °F 29.93 in SE 3.0 mph 9.0 mph 54 % 0.00 in
15:07 95.2 °F 74.8 °F 29.93 in SSE 5.0 mph 9.0 mph 52 % 0.00 in
15:12 95.0 °F 74.7 °F 29.92 in East 5.0 mph 11.0 mph 52 % 0.00 in
15:17 95.4 °F 75.6 °F 29.92 in SSW 2.0 mph 11.0 mph 53 % 0.00 in
15:22 95.9 °F 75.9 °F 29.92 in SSW 6.0 mph 11.0 mph 53 % 0.00 in
15:27 95.9 °F 76.6 °F 29.92 in SSE 5.0 mph 10.0 mph 54 % 0.00 in
15:32 95.4 °F 75.0 °F 29.92 in SE 6.0 mph 11.0 mph 52 % 0.00 in
15:37 94.6 °F 74.8 °F 29.91 in South 4.0 mph 11.0 mph 53 % 0.00 in
15:42 94.5 °F 75.7 °F 29.91 in ESE 5.0 mph 11.0 mph 55 % 0.00 in
15:47 94.6 °F 74.8 °F 29.91 in SE 5.0 mph 11.0 mph 53 % 0.00 in
15:52 94.8 °F 75.6 °F 29.91 in South 5.0 mph 9.0 mph 54 % 0.00 in
15:57 94.6 °F 76.5 °F 29.91 in SSW 4.0 mph 9.0 mph 56 % 0.00 in
16:02 94.6 °F 75.4 °F 29.91 in ESE 7.0 mph 9.0 mph 54 % 0.00 in
16:07 94.8 °F 75.0 °F 29.91 in SSW 1.0 mph 9.0 mph 53 % 0.00 in
16:12 94.6 °F 75.4 °F 29.91 in SE 3.0 mph 10.0 mph 54 % 0.00 in
16:17 95.0 °F 75.7 °F 29.91 in SSE 2.0 mph 10.0 mph 54 % 0.00 in
16:22 95.4 °F 76.1 °F 29.90 in SSE 6.0 mph 10.0 mph 54 % 0.00 in
16:27 94.5 °F 76.3 °F 29.90 in South 5.0 mph 11.0 mph 56 % 0.00 in
16:32 93.9 °F 75.2 °F 29.90 in SE 7.0 mph 11.0 mph 55 % 0.00 in
16:37 93.6 °F 75.6 °F 29.90 in South 3.0 mph 11.0 mph 56 % 0.00 in
16:42 93.6 °F 75.6 °F 29.89 in SSE 3.0 mph 10.0 mph 56 % 0.00 in
16:47 93.4 °F 75.4 °F 29.89 in SSW 3.0 mph 12.0 mph 56 % 0.00 in
16:52 93.6 °F 77.0 °F 29.89 in SSE 3.0 mph 12.0 mph 59 % 0.00 in
16:57 93.6 °F 75.6 °F 29.89 in SSE 5.0 mph 12.0 mph 56 % 0.00 in
17:02 93.6 °F 75.6 °F 29.89 in SSE 6.0 mph 10.0 mph 56 % 0.00 in
17:07 93.7 °F 75.7 °F 29.89 in South 8.0 mph 10.0 mph 56 % 0.00 in
17:12 93.4 °F 75.9 °F 29.89 in South 8.0 mph 10.0 mph 57 % 0.00 in
17:17 93.4 °F 75.9 °F 29.88 in SE 4.0 mph 11.0 mph 57 % 0.00 in
17:22 93.9 °F 75.7 °F 29.88 in SSE 5.0 mph 11.0 mph 56 % 0.00 in
17:27 94.1 °F 75.9 °F 29.88 in South 5.0 mph 11.0 mph 56 % 0.00 in
17:32 94.1 °F 75.9 °F 29.88 in SE 4.0 mph 9.0 mph 56 % 0.00 in
17:37 93.9 °F 75.7 °F 29.88 in South 4.0 mph 9.0 mph 56 % 0.00 in
17:42 93.7 °F 76.3 °F 29.88 in SSW 3.0 mph 9.0 mph 57 % 0.00 in
17:47 93.2 °F 75.7 °F 29.88 in SSE 9.0 mph 9.0 mph 57 % 0.00 in
17:52 92.8 °F 75.9 °F 29.88 in South 7.0 mph 10.0 mph 58 % 0.00 in
17:58 92.5 °F 75.6 °F 29.88 in SSW 6.0 mph 11.0 mph 58 % 0.00 in
18:02 92.1 °F 75.7 °F 29.88 in SSE 4.0 mph 11.0 mph 59 % 0.00 in
18:07 91.9 °F 75.6 °F 29.88 in South 6.0 mph 11.0 mph 59 % 0.00 in
18:13 91.8 °F 75.4 °F 29.87 in SSE 5.0 mph 10.0 mph 59 % 0.00 in
18:17 92.1 °F 75.7 °F 29.87 in SSE 9.0 mph 11.0 mph 59 % 0.00 in
18:23 92.5 °F 75.6 °F 29.87 in South 9.0 mph 11.0 mph 58 % 0.00 in
18:28 92.7 °F 76.3 °F 29.87 in SE 9.0 mph 12.0 mph 59 % 0.00 in
18:33 92.7 °F 76.3 °F 29.87 in SSE 5.0 mph 12.0 mph 59 % 0.00 in
18:38 92.1 °F 76.3 °F 29.86 in South 7.0 mph 13.0 mph 60 % 0.00 in
18:43 91.9 °F 76.6 °F 29.86 in SW 5.0 mph 13.0 mph 61 % 0.00 in
18:48 91.8 °F 75.9 °F 29.86 in South 7.0 mph 13.0 mph 60 % 0.00 in
18:50 91.8 °F 75.9 °F 29.86 in South 5.0 mph 12.0 mph 60 % 0.00 in
18:55 91.4 °F 75.6 °F 29.86 in SSW 5.0 mph 12.0 mph 60 % 0.00 in
19:00 91.0 °F 75.7 °F 29.86 in SSE 2.0 mph 12.0 mph 61 % 0.00 in
19:05 91.2 °F 75.9 °F 29.86 in SSE 6.0 mph 12.0 mph 61 % 0.00 in
19:10 91.2 °F 76.3 °F 29.86 in South 8.0 mph 12.0 mph 62 % 0.00 in
19:15 91.0 °F 76.3 °F 29.86 in SSE 5.0 mph 13.0 mph 62 % 0.00 in
19:20 90.7 °F 75.9 °F 29.86 in SE 7.0 mph 13.0 mph 62 % 0.00 in
19:25 90.3 °F 75.9 °F 29.86 in South 7.0 mph 13.0 mph 63 % 0.00 in
19:30 90.0 °F 76.1 °F 29.86 in SSE 5.0 mph 13.0 mph 64 % 0.00 in
19:35 89.6 °F 75.7 °F 29.86 in SSW 4.0 mph 13.0 mph 64 % 0.00 in
19:40 89.2 °F 75.9 °F 29.86 in SSE 7.0 mph 12.0 mph 65 % 0.00 in
19:45 89.1 °F 75.2 °F 29.86 in SSE 6.0 mph 13.0 mph 64 % 0.00 in
19:50 88.9 °F 75.6 °F 29.86 in ESE 8.0 mph 13.0 mph 65 % 0.00 in
19:55 88.5 °F 75.2 °F 29.86 in South 9.0 mph 13.0 mph 65 % 0.00 in
20:00 88.3 °F 75.0 °F 29.86 in South 7.0 mph 12.0 mph 65 % 0.00 in
20:05 88.2 °F 75.4 °F 29.86 in SE 5.0 mph 12.0 mph 66 % 0.00 in
20:10 88.0 °F 75.2 °F 29.86 in SE 8.0 mph 12.0 mph 66 % 0.00 in
20:15 87.6 °F 74.8 °F 29.86 in SSW 4.0 mph 12.0 mph 66 % 0.00 in
20:20 87.4 °F 75.2 °F 29.87 in SE 3.0 mph 12.0 mph 67 % 0.00 in
20:25 87.3 °F 75.0 °F 29.87 in South 10.0 mph 10.0 mph 67 % 0.00 in
20:30 86.9 °F 75.0 °F 29.87 in SSW 7.0 mph 12.0 mph 68 % 0.00 in
20:35 86.7 °F 75.4 °F 29.87 in SSW 4.0 mph 12.0 mph 69 % 0.00 in
20:40 86.4 °F 75.0 °F 29.87 in ESE 4.0 mph 12.0 mph 69 % 0.00 in
20:45 86.4 °F 75.0 °F 29.87 in SSW 3.0 mph 11.0 mph 69 % 0.00 in
20:50 86.2 °F 74.8 °F 29.87 in ESE 5.0 mph 11.0 mph 69 % 0.00 in
20:55 86.0 °F 74.7 °F 29.87 in South 6.0 mph 11.0 mph 69 % 0.00 in
21:00 85.6 °F 74.7 °F 29.88 in South 3.0 mph 9.0 mph 70 % 0.00 in
21:01 85.6 °F 74.7 °F 29.88 in SW 5.0 mph 9.0 mph 70 % 0.00 in
21:06 85.5 °F 75.0 °F 29.88 in SW 8.0 mph 9.0 mph 71 % 0.00 in
21:11 85.3 °F 74.8 °F 29.87 in SSW 3.0 mph 11.0 mph 71 % 0.00 in
21:16 85.1 °F 74.7 °F 29.87 in SE 5.0 mph 11.0 mph 71 % 0.00 in
21:21 84.9 °F 74.8 °F 29.87 in SSE 6.0 mph 11.0 mph 72 % 0.00 in
21:26 84.7 °F 74.7 °F 29.88 in SSW 4.0 mph 9.0 mph 72 % 0.00 in
21:31 84.6 °F 74.5 °F 29.88 in South 4.0 mph 10.0 mph 72 % 0.00 in
21:36 84.4 °F 74.8 °F 29.87 in SSW 12.0 mph 12.0 mph 73 % 0.00 in
21:41 84.0 °F 74.5 °F 29.87 in SE 4.0 mph 12.0 mph 73 % 0.00 in
21:46 83.8 °F 74.3 °F 29.87 in South 5.0 mph 12.0 mph 73 % 0.00 in
21:51 83.8 °F 74.7 °F 29.88 in South 4.0 mph 12.0 mph 74 % 0.00 in
21:56 83.7 °F 74.5 °F 29.88 in SSE 6.0 mph 8.0 mph 74 % 0.00 in
22:01 83.5 °F 74.7 °F 29.88 in South 4.0 mph 8.0 mph 75 % 0.00 in
22:06 83.1 °F 74.3 °F 29.88 in SSW 4.0 mph 8.0 mph 75 % 0.00 in
22:11 82.9 °F 74.7 °F 29.89 in SSW 1.0 mph 8.0 mph 76 % 0.00 in
22:16 82.8 °F 74.5 °F 29.89 in SSW 5.0 mph 8.0 mph 76 % 0.00 in
22:21 82.8 °F 74.8 °F 29.89 in SSW 4.0 mph 8.0 mph 77 % 0.00 in
22:26 82.6 °F 74.7 °F 29.89 in SSW 3.0 mph 10.0 mph 77 % 0.00 in
22:31 82.6 °F 74.7 °F 29.89 in South 2.0 mph 10.0 mph 77 % 0.00 in
22:36 82.2 °F 74.7 °F 29.90 in SSE 1.0 mph 10.0 mph 78 % 0.00 in
22:41 82.0 °F 74.5 °F 29.90 in SE 3.0 mph 9.0 mph 78 % 0.00 in
22:46 82.0 °F 74.8 °F 29.90 in South 5.0 mph 9.0 mph 79 % 0.00 in
22:51 81.9 °F 74.7 °F 29.90 in SSW 4.0 mph 9.0 mph 79 % 0.00 in
22:56 81.9 °F 74.7 °F 29.90 in SW 6.0 mph 9.0 mph 79 % 0.00 in
23:01 81.7 °F 74.5 °F 29.90 in SW 4.0 mph 9.0 mph 79 % 0.00 in
23:06 81.5 °F 74.7 °F 29.91 in SSW 3.0 mph 9.0 mph 80 % 0.00 in
23:11 81.3 °F 74.5 °F 29.91 in SE 2.0 mph 7.0 mph 80 % 0.00 in
23:12 81.3 °F 74.5 °F 29.91 in South 2.0 mph 7.0 mph 80 % 0.00 in
23:17 81.3 °F 74.8 °F 29.91 in South 3.0 mph 6.0 mph 81 % 0.00 in
23:22 81.1 °F 74.7 °F 29.91 in SSE 4.0 mph 6.0 mph 81 % 0.00 in
23:27 81.0 °F 75.0 °F 29.91 in South 2.0 mph 6.0 mph 82 % 0.00 in
23:32 81.0 °F 75.0 °F 29.91 in SSW 3.0 mph 6.0 mph 82 % 0.00 in
23:37 80.8 °F 74.8 °F 29.91 in South 2.0 mph 6.0 mph 82 % 0.00 in
23:42 80.8 °F 75.2 °F 29.92 in SE 2.0 mph 5.0 mph 83 % 0.00 in
23:47 80.6 °F 75.0 °F 29.92 in SSW 2.0 mph 5.0 mph 83 % 0.00 in
23:52 80.4 °F 74.8 °F 29.92 in SSW 2.0 mph 5.0 mph 83 % 0.00 in
23:57 80.4 °F 75.2 °F 29.92 in Calm   4.0 mph 84 % 0.00 in
Spring, Texas: Villages of Bridgestone
Compliments of Weather Underground - 2.75 mb

Script developed by  Jim McMurry - jmcmurry@mwt.net Adapted for the template by  Wim van der Kuil - Leuven-Template.eu

You find our weather info also at:

UK Metoffice

WeatherCloud

Weather Underground

Mid-South Weather Network

AWEKAS

Citizen Weather Observer Program (CWOP)

HAMweather, WeatherForYou, PWS Weather

Equipment we use:

Weather-station
Davis Vantage Vue

Weather-program
Meteohub

Weather-server
Debian 7.9 x86 (Guest)

Provider
DreamHost

Davis Vantage Vue

Meteohub

Debian 7.9 x86 (Guest)

DreamHost